»·PEaware :: N426M KWMC-KSCK

N426M :: KWMC-KSCK

FLIGHT INFORMATION

Flight Status: Arrived
Operator: Privately registered:
United States
More flights under this callsign
Pilot: Bob S. (40)
Aircraft: GATES LEARJET LEARJET 60
(LJ60)
More flights by this aircraft type
Origin: KWMC Winnemucca Mun
United States
Destination: KSCK Stockton Metro
United States
More flights between these airports :: More routes between these airports
Route:
File this flight plan on PilotEdge
Remarks:
Altitude:
(Current/Filed)
33,000ft
Speed:
(Current/Filed)
450kts
Departed: 24-Feb-11 10:14 PM
Arrived: 24-Feb-11 10:52 PM
Distance/Time
Traveled:
240nm/0:38
Distance/Time
To Go:
Arrived

Flight Plot

Page will automatically refresh every two minutes.


Map Options




Map Legend


Flown Route
Filed Route
Departure Airport
Arrival Airport
Navaid (VOR, NDB)
Fix

Horizontal Profiles

Position Reports

Time Latitude Longitude Heading Altitude Ground
Speed
24-Feb-11 22:12 40.894552 -117.808356 339 4316ft 142kts
24-Feb-11 22:13 40.891214 -117.854710 198 7739ft 263kts
24-Feb-11 22:14 40.820506 -117.888664 216 11575ft 283kts
24-Feb-11 22:15 40.545653 -118.162281 219 25471ft 387kts
24-Feb-11 22:17 40.046181 -118.715699 247 33866ft 448kts
24-Feb-11 22:18 39.976976 -118.850077 233 33941ft 449kts
24-Feb-11 22:19 39.904047 -118.983477 233 33947ft 456kts
24-Feb-11 22:20 39.829923 -119.118499 233 33946ft 460kts
24-Feb-11 22:21 39.755385 -119.253652 233 33937ft 459kts
24-Feb-11 22:22 39.681434 -119.387177 235 33933ft 455kts
24-Feb-11 22:23 39.607130 -119.520862 236 33932ft 456kts
24-Feb-11 22:24 39.534056 -119.648736 228 33718ft 460kts
24-Feb-11 22:25 39.423773 -119.729830 211 32499ft 461kts
24-Feb-11 22:26 39.317488 -119.802453 212 31347ft 454kts
24-Feb-11 22:27 39.207021 -119.877689 211 30123ft 443kts
24-Feb-11 22:28 39.102358 -119.948769 209 28928ft 429kts
24-Feb-11 22:29 38.998253 -120.019110 208 27719ft 419kts
24-Feb-11 22:30 38.898214 -120.086531 208 26501ft 398kts
24-Feb-11 22:31 38.786411 -120.161630 207 25074ft 385kts
24-Feb-11 22:32 38.709254 -120.213296 207 24302ft 377kts
24-Feb-11 22:33 38.616269 -120.275391 207 23995ft 377kts
24-Feb-11 22:34 38.524498 -120.336506 207 21934ft 367kts
24-Feb-11 22:35 38.435391 -120.395675 207 19891ft 358kts
24-Feb-11 22:36 38.351253 -120.456164 216 18374ft 357kts
24-Feb-11 22:37 38.274020 -120.530874 215 16493ft 348kts
24-Feb-11 22:38 38.198879 -120.602463 215 14636ft 342kts
24-Feb-11 22:39 38.123975 -120.674051 215 12742ft 335kts
24-Feb-11 22:40 38.050185 -120.744393 215 10834ft 328kts
24-Feb-11 22:41 37.979653 -120.811447 216 8971ft 322kts
24-Feb-11 22:42 37.913279 -120.874486 215 7246ft 235kts
24-Feb-11 22:43 37.865890 -120.919305 215 6183ft 213kts
24-Feb-11 22:44 37.819126 -120.963509 215 5227ft 212kts
24-Feb-11 22:45 37.772639 -121.007399 216 4367ft 207kts
24-Feb-11 22:46 37.780744 -121.061351 320 3203ft 185kts
24-Feb-11 22:47 37.813767 -121.106097 308 2283ft 174kts
24-Feb-11 22:48 37.842602 -121.152764 307 1411ft 157kts
24-Feb-11 22:49 37.869045 -121.196156 307 614ft 155kts
24-Feb-11 22:50 37.891619 -121.233361 306 38ft 95kts
24-Feb-11 22:51 37.902392 -121.247875 22 38ft 30kts
24-Feb-11 22:52 37.901315 -121.242155 116 38ft 13kts
24-Feb-11 22:53 37.901272 -121.242037 115 38ft 0kts
24-Feb-11 22:54 37.901272 -121.242037 115 38ft 0kts
24-Feb-11 22:55 37.901272 -121.242037 115 38ft 0kts
24-Feb-11 22:56 37.901272 -121.242037 115 38ft 0kts
24-Feb-11 22:57 37.901272 -121.242037 115 38ft 0kts
24-Feb-11 22:58 37.901272 -121.242037 115 38ft 0kts
24-Feb-11 22:59 37.901272 -121.242037 115 38ft 0kts
24-Feb-11 23:01 37.901272 -121.242037 115 38ft 0kts
24-Feb-11 23:02 37.901272 -121.242037 115 38ft 0kts
24-Feb-11 23:03 37.901272 -121.242037 115 38ft 0kts
24-Feb-11 23:04 37.901272 -121.242037 115 38ft 0kts
24-Feb-11 23:05 37.901272 -121.242037 115 38ft 0kts

Navigation Log

Ident Type
Flight plan parsing failed, navigation log unavailable